createdAt,value
2023-04-18T00:00:10.495Z,10.88
2023-04-18T00:02:44.297Z,10.84
2023-04-18T00:05:12.928Z,10.79
2023-04-18T00:07:41.814Z,10.76
2023-04-18T00:10:10.894Z,10.74
2023-04-18T00:12:39.687Z,10.71
2023-04-18T00:15:11.953Z,10.69
2023-04-18T00:17:41.944Z,10.66
2023-04-18T00:20:11.457Z,10.62
2023-04-18T00:22:45.312Z,10.59
2023-04-18T00:25:13.654Z,10.55
2023-04-18T00:27:41.904Z,10.49
2023-04-18T00:30:10.997Z,10.46
2023-04-18T00:32:39.722Z,10.42
2023-04-18T00:35:08.249Z,10.39
2023-04-18T00:37:37.325Z,10.36
2023-04-18T00:40:06.906Z,10.33
2023-04-18T00:42:35.712Z,10.29
2023-04-18T00:45:04.197Z,10.28
2023-04-18T00:47:33.410Z,10.27
2023-04-18T00:50:01.661Z,10.25
2023-04-18T00:52:30.184Z,10.21
2023-04-18T00:54:58.531Z,10.20
2023-04-18T00:57:26.894Z,10.19
2023-04-18T00:59:55.953Z,10.17
2023-04-18T01:02:26.397Z,10.16
2023-04-18T01:04:56.509Z,10.14
2023-04-18T01:07:26.597Z,10.13
2023-04-18T01:09:58.894Z,10.11
2023-04-18T01:12:27.314Z,10.11
2023-04-18T01:14:55.791Z,10.12
2023-04-18T01:17:24.510Z,10.12
2023-04-18T01:19:52.846Z,10.12
2023-04-18T01:22:21.041Z,10.10
2023-04-18T01:24:49.293Z,10.11
2023-04-18T01:27:20.111Z,10.11
2023-04-18T01:29:48.233Z,10.10
2023-04-18T01:32:20.695Z,10.08
2023-04-18T01:34:49.197Z,10.07
2023-04-18T01:37:17.788Z,10.05
2023-04-18T01:39:46.035Z,10.03
2023-04-18T01:42:14.314Z,10.01
2023-04-18T01:44:43.264Z,10.00
2023-04-18T01:47:11.580Z,10.00
2023-04-18T01:49:42.969Z,9.98
2023-04-18T01:52:14.375Z,9.95
2023-04-18T01:54:43.773Z,9.93
2023-04-18T01:57:12.028Z,9.93
2023-04-18T01:59:40.248Z,9.93
2023-04-18T02:02:08.655Z,9.94
2023-04-18T02:04:37.445Z,9.94
2023-04-18T02:07:05.749Z,9.93
2023-04-18T02:09:33.996Z,9.90
2023-04-18T02:12:02.810Z,9.88
2023-04-18T02:14:32.463Z,9.87
2023-04-18T02:17:02.002Z,9.88
2023-04-18T02:19:30.890Z,9.88
2023-04-18T02:21:59.160Z,9.86
2023-04-18T02:24:27.548Z,9.84
2023-04-18T02:26:55.983Z,9.82
2023-04-18T02:29:24.207Z,9.79
2023-04-18T02:31:52.577Z,9.78
2023-04-18T02:34:21.008Z,9.76
2023-04-18T02:36:49.933Z,9.72
2023-04-18T02:39:18.241Z,9.69
2023-04-18T02:41:46.453Z,9.64
2023-04-18T02:44:17.573Z,9.60
2023-04-18T02:46:45.806Z,9.57
2023-04-18T02:49:14.442Z,9.53
2023-04-18T02:51:43.268Z,9.50
2023-04-18T02:54:11.665Z,9.50
2023-04-18T02:56:54.360Z,9.48
2023-04-18T02:59:35.262Z,9.45
2023-04-18T03:02:17.277Z,9.41
2023-04-18T03:04:50.738Z,9.35
2023-04-18T03:07:19.211Z,9.30
2023-04-18T03:09:48.409Z,9.26
2023-04-18T03:12:20.185Z,9.22
2023-04-18T03:14:48.692Z,9.21
2023-04-18T03:17:17.386Z,9.19
2023-04-18T03:19:48.813Z,9.17
2023-04-18T03:22:21.464Z,9.18
2023-04-18T03:25:00.849Z,9.18
2023-04-18T03:27:51.697Z,9.18
2023-04-18T03:30:21.422Z,9.17
2023-04-18T03:33:03.088Z,9.18
2023-04-18T03:35:33.642Z,9.19
2023-04-18T03:38:01.906Z,9.17
2023-04-18T03:40:31.963Z,9.14
2023-04-18T03:43:04.927Z,9.12
2023-04-18T03:45:33.402Z,9.10
2023-04-18T03:48:01.714Z,9.07
2023-04-18T03:50:42.451Z,9.04
2023-04-18T03:56:11.359Z,9.06
2023-04-18T03:59:06.741Z,9.07
2023-04-18T04:01:35.379Z,9.08
2023-04-18T04:04:04.471Z,9.13
2023-04-18T04:06:33.464Z,9.20
2023-04-18T04:09:02.534Z,9.27
2023-04-18T04:11:31.434Z,9.30
2023-04-18T04:13:59.706Z,9.37
2023-04-18T04:16:33.545Z,9.46
2023-04-18T04:19:04.894Z,9.53
2023-04-18T04:21:39.136Z,9.54
2023-04-18T04:24:09.735Z,9.54
2023-04-18T04:26:42.883Z,9.53
2023-04-18T04:29:16.659Z,9.55
2023-04-18T04:31:46.236Z,9.64
2023-04-18T04:34:17.112Z,9.75
2023-04-18T04:36:45.557Z,9.91
2023-04-18T04:39:15.888Z,10.14
2023-04-18T04:41:55.552Z,10.49
2023-04-18T04:44:27.130Z,10.82
2023-04-18T04:46:56.234Z,11.18
2023-04-18T04:49:27.810Z,11.62
2023-04-18T04:51:56.208Z,12.12
2023-04-18T04:55:03.498Z,12.78
2023-04-18T04:57:32.274Z,13.37
2023-04-18T05:00:00.756Z,13.81
2023-04-18T05:02:30.261Z,13.83
2023-04-18T05:04:59.795Z,13.55
2023-04-18T05:07:28.095Z,13.29
2023-04-18T05:09:56.246Z,13.04
2023-04-18T05:12:24.488Z,12.89
2023-04-18T05:14:52.686Z,12.76
2023-04-18T05:17:20.981Z,12.65
2023-04-18T05:19:49.273Z,12.53
2023-04-18T05:22:17.519Z,12.41
2023-04-18T05:24:55.370Z,12.30
2023-04-18T05:27:23.679Z,12.30
2023-04-18T05:29:51.942Z,12.43
2023-04-18T05:32:20.202Z,12.63
2023-04-18T05:34:48.802Z,12.94
2023-04-18T05:37:17.078Z,13.27
2023-04-18T05:39:47.887Z,13.68
2023-04-18T05:42:24.089Z,14.31
2023-04-18T05:44:54.718Z,14.86
2023-04-18T05:47:24.306Z,15.33
2023-04-18T05:49:52.781Z,15.71
2023-04-18T05:52:21.097Z,15.95
2023-04-18T05:54:49.393Z,16.11
2023-04-18T05:57:17.611Z,16.19
2023-04-18T05:59:45.930Z,15.99
2023-04-18T06:02:14.465Z,15.66
2023-04-18T06:04:43.321Z,15.38
2023-04-18T06:07:13.016Z,15.05
2023-04-18T06:09:42.281Z,14.75
2023-04-18T06:12:10.875Z,14.64
2023-04-18T06:14:39.221Z,14.58
2023-04-18T06:17:07.576Z,14.55
2023-04-18T06:19:36.456Z,14.54
2023-04-18T06:22:04.758Z,14.53
2023-04-18T06:24:33.781Z,14.59
2023-04-18T06:27:03.375Z,14.86
2023-04-18T06:29:36.238Z,15.17
2023-04-18T06:32:06.364Z,15.37
2023-04-18T06:34:34.709Z,15.51
2023-04-18T06:37:02.975Z,15.66
2023-04-18T06:39:31.490Z,15.89
2023-04-18T06:42:00.357Z,16.17
2023-04-18T06:44:32.189Z,16.43
2023-04-18T06:47:00.618Z,16.82
2023-04-18T06:49:29.231Z,17.26
2023-04-18T06:51:57.605Z,17.64
2023-04-18T06:54:26.180Z,17.95
2023-04-18T06:56:54.520Z,18.16
2023-04-18T06:59:23.603Z,18.36
2023-04-18T07:01:51.954Z,18.41
2023-04-18T07:04:20.467Z,18.39
2023-04-18T07:06:49.020Z,18.30
2023-04-18T07:09:17.264Z,18.14
2023-04-18T07:11:45.563Z,17.87
2023-04-18T07:14:14.346Z,17.50
2023-04-18T07:16:43.484Z,17.20
2023-04-18T07:19:11.768Z,17.01
2023-04-18T07:21:40.877Z,16.89
2023-04-18T07:24:10.269Z,16.97
2023-04-18T07:26:38.709Z,17.18
2023-04-18T07:29:06.860Z,17.39
2023-04-18T07:31:35.838Z,17.63
2023-04-18T07:34:04.881Z,17.97
2023-04-18T07:36:34.005Z,18.41
2023-04-18T07:39:02.210Z,18.94
2023-04-18T07:41:31.231Z,19.47
2023-04-18T07:44:03.151Z,20.01
2023-04-18T07:46:32.707Z,20.45
2023-04-18T07:49:02.639Z,20.73
2023-04-18T07:51:35.254Z,21.01
2023-04-18T07:54:03.719Z,21.19
2023-04-18T07:56:32.673Z,21.31
2023-04-18T07:59:01.875Z,21.36
2023-04-18T08:01:31.822Z,21.31
2023-04-18T08:04:02.321Z,21.33
2023-04-18T08:06:31.569Z,21.53
2023-04-18T08:09:03.964Z,21.81
2023-04-18T08:11:35.794Z,21.99
2023-04-18T08:14:04.093Z,22.18
2023-04-18T08:16:33.765Z,22.38
2023-04-18T08:19:02.034Z,22.50
2023-04-18T08:21:31.614Z,22.64
2023-04-18T08:24:00.053Z,22.58
2023-04-18T08:26:28.371Z,22.49
2023-04-18T08:28:56.982Z,22.47
2023-04-18T08:31:26.137Z,22.60
2023-04-18T08:33:54.400Z,22.58
2023-04-18T08:36:22.729Z,22.47
2023-04-18T08:38:51.080Z,22.51
2023-04-18T08:41:21.737Z,22.69
2023-04-18T08:43:50.180Z,22.92
2023-04-18T08:46:19.548Z,23.16
2023-04-18T08:48:49.965Z,23.46
2023-04-18T08:51:18.789Z,23.62
2023-04-18T08:53:48.823Z,23.70
2023-04-18T08:56:17.261Z,23.68
2023-04-18T08:58:45.660Z,23.52
2023-04-18T09:01:15.288Z,23.44
2023-04-18T09:03:44.367Z,23.30
2023-04-18T09:06:19.258Z,23.22
2023-04-18T09:08:59.308Z,23.26
2023-04-18T09:11:29.505Z,23.30
2023-04-18T09:13:59.306Z,23.33
2023-04-18T09:16:28.080Z,23.51
2023-04-18T09:19:11.270Z,23.83
2023-04-18T09:21:41.298Z,24.11
2023-04-18T09:24:30.664Z,24.06
2023-04-18T09:27:00.331Z,23.99
2023-04-18T09:29:43.633Z,24.06
2023-04-18T09:32:33.403Z,24.04
2023-04-18T09:35:04.751Z,24.07
2023-04-18T09:37:33.426Z,24.30
2023-04-18T09:40:02.411Z,24.37
2023-04-18T09:42:36.059Z,24.30
2023-04-18T09:45:06.280Z,24.20
2023-04-18T09:47:36.621Z,24.08
2023-04-18T09:50:09.361Z,23.90
2023-04-18T09:52:42.078Z,23.79
2023-04-18T09:55:20.669Z,23.73
2023-04-18T09:57:49.538Z,23.71
2023-04-18T10:00:26.724Z,23.47
2023-04-18T10:03:08.364Z,23.23
2023-04-18T10:05:39.522Z,23.09
2023-04-18T10:08:08.609Z,22.84
2023-04-18T10:10:40.888Z,22.66
2023-04-18T10:13:11.286Z,22.54
2023-04-18T10:15:41.754Z,22.34
2023-04-18T10:18:15.233Z,22.18
2023-04-18T10:20:44.680Z,22.11
2023-04-18T10:23:31.409Z,22.14
2023-04-18T10:25:59.849Z,22.31
2023-04-18T10:28:28.379Z,22.39
2023-04-18T10:31:03.910Z,22.30
2023-04-18T10:33:42.796Z,22.31
2023-04-18T10:36:12.555Z,22.24
2023-04-18T10:38:45.536Z,22.02
2023-04-18T10:41:16.055Z,21.76
2023-04-18T10:44:09.776Z,21.54
2023-04-18T10:46:58.586Z,21.21
2023-04-18T10:49:30.344Z,20.86
2023-04-18T10:52:01.480Z,20.52
2023-04-18T10:54:31.080Z,20.21
2023-04-18T10:57:01.928Z,19.92
2023-04-18T10:59:33.250Z,19.69
2023-04-18T11:05:32.044Z,19.16
2023-04-18T11:08:00.355Z,18.95
2023-04-18T11:10:29.680Z,18.80
2023-04-18T11:13:04.564Z,18.65
2023-04-18T11:15:32.953Z,18.52
2023-04-18T11:18:05.047Z,18.41
2023-04-18T11:20:40.052Z,18.34
2023-04-18T11:23:24.237Z,18.32
2023-04-18T11:25:54.587Z,18.33
2023-04-18T11:28:25.229Z,18.38
2023-04-18T11:30:57.847Z,18.61
2023-04-18T11:33:32.277Z,18.92
2023-04-18T11:36:02.512Z,19.14
2023-04-18T11:38:31.493Z,19.27
2023-04-18T11:41:02.897Z,19.31
2023-04-18T11:43:33.927Z,19.36
2023-04-18T11:46:03.227Z,19.45
2023-04-18T11:48:37.364Z,19.52
2023-04-18T11:51:07.213Z,19.55
2023-04-18T11:53:36.315Z,19.55
2023-04-18T11:56:06.579Z,19.61
2023-04-18T11:58:36.617Z,19.71
2023-04-18T12:01:24.123Z,19.81
2023-04-18T12:04:04.266Z,19.75
2023-04-18T12:06:50.399Z,19.54
2023-04-18T12:09:21.284Z,19.37
2023-04-18T12:12:05.990Z,19.23
2023-04-18T12:14:38.565Z,19.14
2023-04-18T12:17:07.253Z,19.06
2023-04-18T12:19:36.209Z,18.93
2023-04-18T12:22:08.366Z,18.78
2023-04-18T12:24:38.106Z,18.62
2023-04-18T12:27:06.688Z,18.50
2023-04-18T12:29:37.225Z,18.36
2023-04-18T12:32:20.503Z,18.18
2023-04-18T12:34:52.588Z,18.07
2023-04-18T12:37:28.941Z,18.03
2023-04-18T12:40:02.983Z,17.98
2023-04-18T12:42:34.138Z,17.89
2023-04-18T12:45:07.733Z,17.90
2023-04-18T12:47:38.186Z,17.92
2023-04-18T12:50:11.657Z,17.89
2023-04-18T12:52:40.991Z,17.80
2023-04-18T12:55:10.418Z,17.71
2023-04-18T12:57:39.089Z,17.65
2023-04-18T13:00:11.640Z,17.55
2023-04-18T13:02:43.079Z,17.48
2023-04-18T13:05:13.539Z,17.34
2023-04-18T13:07:42.681Z,17.23
2023-04-18T13:10:12.777Z,17.11
2023-04-18T13:12:42.268Z,17.07
2023-04-18T13:15:10.986Z,17.05
2023-04-18T13:17:40.263Z,16.99
2023-04-18T13:20:13.165Z,16.97
2023-04-18T13:22:41.788Z,16.89
2023-04-18T13:25:13.593Z,16.79
2023-04-18T13:27:42.214Z,16.71
2023-04-18T13:30:11.180Z,16.65
2023-04-18T13:32:41.613Z,16.59
2023-04-18T13:35:13.072Z,16.54
2023-04-18T13:37:41.914Z,16.46
2023-04-18T13:40:11.295Z,16.36
2023-04-18T13:42:40.105Z,16.28
2023-04-18T13:45:08.801Z,16.25
2023-04-18T13:47:37.862Z,16.22
2023-04-18T13:50:07.560Z,16.17
2023-04-18T13:52:36.404Z,16.14
2023-04-18T13:55:05.293Z,16.05
2023-04-18T13:57:33.763Z,16.01
2023-04-18T14:00:02.062Z,15.97
2023-04-18T14:02:41.664Z,15.97
2023-04-18T14:05:10.778Z,15.96
2023-04-18T14:07:39.078Z,15.92
2023-04-18T14:10:08.238Z,15.86
2023-04-18T14:12:36.981Z,15.81
2023-04-18T14:15:05.748Z,15.79
2023-04-18T14:17:35.067Z,15.77
2023-04-18T14:20:05.138Z,15.74
2023-04-18T14:22:33.581Z,15.73
2023-04-18T14:25:02.821Z,15.72
2023-04-18T14:27:33.289Z,15.71
2023-04-18T14:30:01.479Z,15.69
2023-04-18T14:32:32.132Z,15.67
2023-04-18T14:35:00.448Z,15.67
2023-04-18T14:37:29.715Z,15.68
2023-04-18T14:39:58.095Z,15.67
2023-04-18T14:42:26.324Z,15.65
2023-04-18T14:44:54.629Z,15.62
2023-04-18T14:47:24.400Z,15.56
2023-04-18T14:49:52.880Z,15.50
2023-04-18T14:52:21.289Z,15.44
2023-04-18T14:54:50.575Z,15.37
2023-04-18T14:57:19.067Z,15.33
2023-04-18T14:59:47.438Z,15.32
2023-04-18T15:02:16.066Z,15.30
2023-04-18T15:08:16.354Z,15.23
2023-04-18T15:10:46.642Z,15.20
2023-04-18T15:13:16.021Z,15.15
2023-04-18T15:15:54.083Z,15.15
2023-04-18T15:18:24.710Z,15.10
2023-04-18T15:20:54.096Z,15.09
2023-04-18T15:23:22.466Z,15.06
2023-04-18T15:25:52.155Z,15.00
2023-04-18T15:28:20.472Z,14.95
2023-04-18T15:30:48.796Z,14.91
2023-04-18T15:33:19.323Z,14.89
2023-04-18T15:35:47.775Z,14.87
2023-04-18T15:38:16.077Z,14.83
2023-04-18T15:40:44.902Z,14.79
2023-04-18T15:43:14.068Z,14.74
2023-04-18T15:45:44.517Z,14.69
2023-04-18T15:48:13.387Z,14.66
2023-04-18T15:50:42.630Z,14.64
2023-04-18T15:53:10.906Z,14.62
2023-04-18T15:55:39.624Z,14.60
2023-04-18T15:58:07.948Z,14.58
2023-04-18T16:00:36.243Z,14.55
2023-04-18T16:03:05.879Z,14.54
2023-04-18T16:05:36.032Z,14.51
2023-04-18T16:08:04.375Z,14.48
2023-04-18T16:10:32.902Z,14.46
2023-04-18T16:13:04.984Z,14.45
2023-04-18T16:15:35.682Z,14.43
2023-04-18T16:18:06.157Z,14.40
2023-04-18T16:20:35.230Z,14.37
2023-04-18T16:23:05.677Z,14.34
2023-04-18T16:25:38.009Z,14.32
2023-04-18T16:28:08.401Z,14.29
2023-04-18T16:30:37.732Z,14.26
2023-04-18T16:33:06.737Z,14.22
2023-04-18T16:35:35.562Z,14.18
2023-04-18T16:38:04.015Z,14.13
2023-04-18T16:40:35.273Z,14.10
2023-04-18T16:43:03.630Z,14.06
2023-04-18T16:45:33.280Z,14.02
2023-04-18T16:48:01.781Z,13.97
2023-04-18T16:50:31.687Z,13.95
2023-04-18T16:53:01.851Z,13.92
2023-04-18T16:55:30.507Z,13.88
2023-04-18T16:58:01.417Z,13.85
2023-04-18T17:00:30.201Z,13.81
2023-04-18T17:03:00.691Z,13.78
2023-04-18T17:05:29.786Z,13.75
2023-04-18T17:07:58.405Z,13.73
2023-04-18T17:17:28.116Z,13.62
2023-04-18T17:19:59.988Z,13.60
2023-04-18T17:22:29.045Z,13.56
2023-04-18T17:24:58.004Z,13.51
2023-04-18T17:27:24.929Z,13.45
2023-04-18T17:29:55.332Z,13.42
2023-04-18T17:32:57.947Z,13.36
2023-04-18T17:35:27.950Z,13.31
2023-04-18T17:37:57.614Z,13.25
2023-04-18T17:41:10.347Z,13.24
2023-04-18T17:43:37.325Z,13.18
2023-04-18T17:46:10.238Z,13.14
2023-04-18T17:48:40.873Z,13.08
2023-04-18T17:51:10.237Z,13.05
2023-04-18T17:53:38.322Z,13.01
2023-04-18T17:56:05.941Z,12.95
2023-04-18T17:58:43.691Z,12.89
2023-04-18T18:01:22.014Z,12.86
2023-04-18T18:03:52.984Z,12.79
2023-04-18T18:06:24.704Z,12.73
2023-04-18T18:08:55.418Z,12.66
2023-04-18T18:11:24.551Z,12.60
2023-04-18T18:13:54.254Z,12.55
2023-04-18T18:16:22.695Z,12.50
2023-04-18T18:18:50.582Z,12.46
2023-04-18T18:21:17.674Z,12.42
2023-04-18T18:23:44.487Z,12.41
2023-04-18T18:26:11.982Z,12.40
2023-04-18T18:28:39.079Z,12.39
2023-04-18T18:31:06.549Z,12.37
2023-04-18T18:33:34.636Z,12.34
2023-04-18T18:36:02.420Z,12.28
2023-04-18T18:38:29.914Z,12.22
2023-04-18T18:40:57.346Z,12.15
2023-04-18T18:43:26.272Z,12.09
2023-04-18T18:45:53.395Z,12.05
2023-04-18T18:48:20.935Z,12.03
2023-04-18T18:50:48.084Z,12.01
2023-04-18T18:53:17.497Z,12.00
2023-04-18T18:55:47.768Z,11.98
2023-04-18T18:58:16.395Z,11.94
2023-04-18T19:00:46.581Z,11.88
2023-04-18T19:03:14.006Z,11.79
2023-04-18T19:05:41.373Z,11.72
2023-04-18T19:08:11.211Z,11.67
2023-04-18T19:10:38.418Z,11.63
2023-04-18T19:13:05.400Z,11.60
2023-04-18T19:15:33.304Z,11.59
2023-04-18T19:18:01.000Z,11.59
2023-04-18T19:20:29.304Z,11.58
2023-04-18T19:22:56.472Z,11.57
2023-04-18T19:25:23.493Z,11.54
2023-04-18T19:27:50.818Z,11.50
2023-04-18T19:30:20.231Z,11.42
2023-04-18T19:32:47.872Z,11.36
2023-04-18T19:35:14.684Z,11.31
2023-04-18T19:37:42.451Z,11.26
2023-04-18T19:40:09.991Z,11.20
2023-04-18T19:42:36.953Z,11.13
2023-04-18T19:45:05.375Z,11.10
2023-04-18T19:47:33.721Z,11.11
2023-04-18T19:50:03.246Z,11.12
2023-04-18T19:52:31.769Z,11.11
2023-04-18T19:55:00.581Z,11.07
2023-04-18T19:57:28.464Z,11.01
2023-04-18T19:59:56.062Z,10.93
2023-04-18T20:02:23.112Z,10.85
2023-04-18T20:04:50.406Z,10.80
2023-04-18T20:07:17.906Z,10.78
2023-04-18T20:09:45.035Z,10.78
2023-04-18T20:12:12.411Z,10.77
2023-04-18T20:14:39.326Z,10.78
2023-04-18T20:17:06.787Z,10.75
2023-04-18T20:19:33.601Z,10.72
2023-04-18T20:22:01.681Z,10.67
2023-04-18T20:24:35.239Z,10.63
2023-04-18T20:27:03.480Z,10.56
2023-04-18T20:29:30.808Z,10.52
2023-04-18T20:31:58.779Z,10.49
2023-04-18T20:34:25.643Z,10.48
2023-04-18T20:36:52.505Z,10.49
2023-04-18T20:39:19.449Z,10.49
2023-04-18T20:41:50.801Z,10.50
2023-04-18T20:44:21.215Z,10.49
2023-04-18T20:46:48.226Z,10.47
2023-04-18T20:49:15.578Z,10.42
2023-04-18T20:51:42.714Z,10.36
2023-04-18T20:54:09.607Z,10.29
2023-04-18T20:56:36.741Z,10.23
2023-04-18T20:59:04.343Z,10.17
2023-04-18T21:01:32.334Z,10.10
2023-04-18T21:03:59.477Z,10.06
2023-04-18T21:06:27.919Z,10.04
2023-04-18T21:08:54.945Z,10.01
2023-04-18T21:11:22.984Z,9.95
2023-04-18T21:13:51.403Z,9.89
2023-04-18T21:16:19.818Z,9.85
2023-04-18T21:18:46.993Z,9.87
2023-04-18T21:21:13.997Z,9.87
2023-04-18T21:23:42.117Z,9.89
2023-04-18T21:26:14.775Z,9.90
2023-04-18T21:29:04.135Z,9.87
2023-04-18T21:31:32.853Z,9.82
2023-04-18T21:34:02.508Z,9.76
2023-04-18T21:36:30.392Z,9.71
2023-04-18T21:39:01.564Z,9.68
2023-04-18T21:41:32.079Z,9.64
2023-04-18T21:43:59.100Z,9.61
2023-04-18T21:46:26.652Z,9.59
2023-04-18T21:48:53.654Z,9.57
2023-04-18T21:51:20.569Z,9.57
2023-04-18T21:53:47.578Z,9.54
2023-04-18T21:56:16.421Z,9.50
2023-04-18T21:58:43.280Z,9.46
2023-04-18T22:01:10.264Z,9.41
2023-04-18T22:03:37.350Z,9.38
2023-04-18T22:06:08.188Z,9.35
2023-04-18T22:08:35.546Z,9.35
2023-04-18T22:11:04.220Z,9.35
2023-04-18T22:13:33.980Z,9.38
2023-04-18T22:16:04.278Z,9.40
2023-04-18T22:18:34.170Z,9.42
2023-04-18T22:21:02.667Z,9.40
2023-04-18T22:23:29.941Z,9.34
2023-04-18T22:25:56.789Z,9.27
2023-04-18T22:28:24.044Z,9.20
2023-04-18T22:30:51.065Z,9.14
2023-04-18T22:33:17.938Z,9.10
2023-04-18T22:35:47.143Z,9.09
2023-04-18T22:38:14.299Z,9.09
2023-04-18T22:40:41.213Z,9.12
2023-04-18T22:43:08.077Z,9.15
2023-04-18T22:45:35.287Z,9.16
2023-04-18T22:48:02.224Z,9.19
2023-04-18T22:50:29.718Z,9.21
2023-04-18T22:52:56.832Z,9.22
2023-04-18T22:55:23.578Z,9.20
2023-04-18T22:57:50.561Z,9.19
2023-04-18T23:00:17.727Z,9.20
2023-04-18T23:02:44.920Z,9.23
2023-04-18T23:05:14.944Z,9.25
2023-04-18T23:07:42.927Z,9.25
2023-04-18T23:10:10.387Z,9.23
2023-04-18T23:12:38.064Z,9.20
2023-04-18T23:15:05.334Z,9.19
2023-04-18T23:17:34.353Z,9.18
2023-04-18T23:20:01.139Z,9.18
2023-04-18T23:22:28.498Z,9.18
2023-04-18T23:24:55.401Z,9.19
2023-04-18T23:27:22.311Z,9.23
2023-04-18T23:29:49.265Z,9.27
2023-04-18T23:32:16.256Z,9.30
2023-04-18T23:34:44.883Z,9.30
2023-04-18T23:37:12.852Z,9.28
2023-04-18T23:39:39.643Z,9.25
2023-04-18T23:42:06.542Z,9.22
2023-04-18T23:44:34.042Z,9.20
2023-04-18T23:47:00.968Z,9.23
2023-04-18T23:49:28.463Z,9.25
2023-04-18T23:51:55.323Z,9.25
2023-04-18T23:54:23.303Z,9.25
2023-04-18T23:56:50.072Z,9.24
2023-04-18T23:59:17.226Z,9.23
